sensor_id;sensor_type;location;lat;lon;timestamp;pressure;altitude;pressure_sealevel;temperature;humidity
13241;BME280;6687;47.790;7.322;2023-06-14T05:24:49;98501.38;;;19.70;40.25
13241;BME280;6687;47.790;7.322;2023-06-14T05:27:16;98500.06;;;20.00;39.72
13241;BME280;6687;47.790;7.322;2023-06-14T05:29:43;98490.44;;;19.99;39.82
13241;BME280;6687;47.790;7.322;2023-06-14T05:32:10;98508.44;;;19.47;39.64
13241;BME280;6687;47.790;7.322;2023-06-14T05:34:36;98499.78;;;19.23;40.62
13241;BME280;6687;47.790;7.322;2023-06-14T05:37:04;98500.34;;;19.94;39.33
13241;BME280;6687;47.790;7.322;2023-06-14T05:39:30;98499.91;;;19.62;39.97
13241;BME280;6687;47.790;7.322;2023-06-14T05:41:58;98507.28;;;20.35;39.36
13241;BME280;6687;47.790;7.322;2023-06-14T05:44:25;98506.53;;;20.52;38.50
13241;BME280;6687;47.790;7.322;2023-06-14T05:46:52;98504.59;;;20.36;38.60
13241;BME280;6687;47.790;7.322;2023-06-14T05:49:18;98506.53;;;20.52;37.65
13241;BME280;6687;47.790;7.322;2023-06-14T05:51:45;98513.22;;;20.40;38.54
13241;BME280;6687;47.790;7.322;2023-06-14T05:54:13;98516.22;;;20.12;38.90
13241;BME280;6687;47.790;7.322;2023-06-14T05:56:39;98518.16;;;20.66;38.43
13241;BME280;6687;47.790;7.322;2023-06-14T05:59:08;98517.75;;;21.12;37.54
13241;BME280;6687;47.790;7.322;2023-06-14T06:01:34;98515.97;;;21.13;37.68
13241;BME280;6687;47.790;7.322;2023-06-14T06:04:02;98517.78;;;20.93;37.02
13241;BME280;6687;47.790;7.322;2023-06-14T06:06:28;98514.88;;;20.80;37.45
13241;BME280;6687;47.790;7.322;2023-06-14T06:08:55;98517.22;;;20.86;38.26
13241;BME280;6687;47.790;7.322;2023-06-14T06:11:22;98522.03;;;21.51;36.84
13241;BME280;6687;47.790;7.322;2023-06-14T06:13:49;98519.44;;;20.96;37.60
13241;BME280;6687;47.790;7.322;2023-06-14T06:16:17;98527.31;;;21.51;37.13
13241;BME280;6687;47.790;7.322;2023-06-14T06:18:44;98526.22;;;21.55;36.09
13241;BME280;6687;47.790;7.322;2023-06-14T06:21:10;98526.06;;;21.76;36.10
13241;BME280;6687;47.790;7.322;2023-06-14T06:23:37;98526.56;;;21.67;35.64
13241;BME280;6687;47.790;7.322;2023-06-14T06:26:04;98527.72;;;21.42;36.16
13241;BME280;6687;47.790;7.322;2023-06-14T06:28:30;98531.16;;;22.14;35.35
13241;BME280;6687;47.790;7.322;2023-06-14T06:30:57;98530.59;;;22.58;35.00
13241;BME280;6687;47.790;7.322;2023-06-14T06:33:25;98526.91;;;22.29;35.52
13241;BME280;6687;47.790;7.322;2023-06-14T06:35:52;98534.13;;;22.25;35.41
13241;BME280;6687;47.790;7.322;2023-06-14T06:38:19;98540.84;;;22.13;35.12
13241;BME280;6687;47.790;7.322;2023-06-14T06:40:46;98545.66;;;22.56;34.87
13241;BME280;6687;47.790;7.322;2023-06-14T06:43:12;98551.22;;;22.67;34.57
13241;BME280;6687;47.790;7.322;2023-06-14T06:45:39;98551.41;;;22.96;34.27
13241;BME280;6687;47.790;7.322;2023-06-14T06:48:06;98555.38;;;23.20;33.64
13241;BME280;6687;47.790;7.322;2023-06-14T06:50:36;98544.06;;;22.69;34.06
13241;BME280;6687;47.790;7.322;2023-06-14T06:53:03;98543.59;;;22.94;34.13
13241;BME280;6687;47.790;7.322;2023-06-14T06:55:29;98546.91;;;23.30;33.81
13241;BME280;6687;47.790;7.322;2023-06-14T06:57:56;98544.81;;;23.20;33.45
13241;BME280;6687;47.790;7.322;2023-06-14T07:00:23;98547.34;;;23.38;33.44
13241;BME280;6687;47.790;7.322;2023-06-14T07:02:50;98549.22;;;23.36;33.46
13241;BME280;6687;47.790;7.322;2023-06-14T07:05:17;98556.38;;;23.50;33.39
13241;BME280;6687;47.790;7.322;2023-06-14T07:07:45;98547.00;;;24.05;32.43
13241;BME280;6687;47.790;7.322;2023-06-14T07:10:12;98548.03;;;24.02;32.50
13241;BME280;6687;47.790;7.322;2023-06-14T07:12:39;98546.06;;;23.59;32.97
13241;BME280;6687;47.790;7.322;2023-06-14T07:15:07;98549.94;;;24.43;31.89
13241;BME280;6687;47.790;7.322;2023-06-14T07:17:34;98553.84;;;24.95;31.44
13241;BME280;6687;47.790;7.322;2023-06-14T07:20:02;98552.91;;;24.81;31.24
13241;BME280;6687;47.790;7.322;2023-06-14T07:22:37;98546.81;;;24.94;30.97
13241;BME280;6687;47.790;7.322;2023-06-14T07:25:06;98552.91;;;24.53;31.18
13241;BME280;6687;47.790;7.322;2023-06-14T07:27:33;98553.63;;;24.98;30.57
13241;BME280;6687;47.790;7.322;2023-06-14T07:30:00;98550.16;;;25.25;30.63
13241;BME280;6687;47.790;7.322;2023-06-14T07:32:27;98549.41;;;25.90;29.81
13241;BME280;6687;47.790;7.322;2023-06-14T07:34:53;98554.88;;;25.34;29.71
13241;BME280;6687;47.790;7.322;2023-06-14T07:37:20;98555.75;;;24.64;30.25
13241;BME280;6687;47.790;7.322;2023-06-14T07:39:47;98554.91;;;24.64;30.20
13241;BME280;6687;47.790;7.322;2023-06-14T07:42:15;98550.72;;;25.30;29.90
13241;BME280;6687;47.790;7.322;2023-06-14T07:44:42;98554.66;;;26.17;29.28
13241;BME280;6687;47.790;7.322;2023-06-14T07:47:08;98555.53;;;26.30;29.03
13241;BME280;6687;47.790;7.322;2023-06-14T07:49:35;98553.16;;;26.26;28.38
13241;BME280;6687;47.790;7.322;2023-06-14T07:52:03;98553.16;;;26.26;28.22
13241;BME280;6687;47.790;7.322;2023-06-14T07:54:30;98556.16;;;26.47;28.02
13241;BME280;6687;47.790;7.322;2023-06-14T07:56:58;98555.84;;;26.13;28.58
13241;BME280;6687;47.790;7.322;2023-06-14T07:59:27;98553.78;;;26.42;28.30
13241;BME280;6687;47.790;7.322;2023-06-14T08:01:54;98552.75;;;27.07;27.42
13241;BME280;6687;47.790;7.322;2023-06-14T08:04:20;98550.59;;;26.88;28.10
13241;BME280;6687;47.790;7.322;2023-06-14T08:06:47;98546.97;;;26.89;27.83
13241;BME280;6687;47.790;7.322;2023-06-14T08:09:14;98556.38;;;27.43;26.79
13241;BME280;6687;47.790;7.322;2023-06-14T08:11:41;98548.16;;;27.09;27.32
13241;BME280;6687;47.790;7.322;2023-06-14T08:14:08;98551.97;;;27.31;26.42
13241;BME280;6687;47.790;7.322;2023-06-14T08:16:36;98557.31;;;27.18;26.00
13241;BME280;6687;47.790;7.322;2023-06-14T08:19:03;98554.28;;;27.60;25.70
13241;BME280;6687;47.790;7.322;2023-06-14T08:21:30;98543.91;;;27.79;24.92
13241;BME280;6687;47.790;7.322;2023-06-14T08:23:58;98549.81;;;27.36;25.14
13241;BME280;6687;47.790;7.322;2023-06-14T08:26:25;98554.91;;;27.39;25.78
13241;BME280;6687;47.790;7.322;2023-06-14T08:28:54;98540.00;;;28.54;25.05
13241;BME280;6687;47.790;7.322;2023-06-14T08:31:21;98551.34;;;28.33;25.50
13241;BME280;6687;47.790;7.322;2023-06-14T08:33:49;98548.50;;;28.59;25.65
13241;BME280;6687;47.790;7.322;2023-06-14T08:36:16;98549.41;;;29.03;24.48
13241;BME280;6687;47.790;7.322;2023-06-14T08:38:42;98549.88;;;28.29;23.59
13241;BME280;6687;47.790;7.322;2023-06-14T08:41:12;98546.41;;;29.40;22.87
13241;BME280;6687;47.790;7.322;2023-06-14T08:43:39;98554.47;;;28.39;23.59
13241;BME280;6687;47.790;7.322;2023-06-14T08:46:06;98549.00;;;28.06;23.36
13241;BME280;6687;47.790;7.322;2023-06-14T08:48:35;98549.19;;;28.84;22.43
13241;BME280;6687;47.790;7.322;2023-06-14T08:51:04;98555.72;;;29.46;22.22
13241;BME280;6687;47.790;7.322;2023-06-14T08:53:31;98554.72;;;29.26;22.95
13241;BME280;6687;47.790;7.322;2023-06-14T08:55:59;98554.00;;;30.09;22.18
13241;BME280;6687;47.790;7.322;2023-06-14T08:58:27;98552.75;;;29.60;21.68
13241;BME280;6687;47.790;7.322;2023-06-14T09:00:55;98548.00;;;29.64;21.04
13241;BME280;6687;47.790;7.322;2023-06-14T09:03:22;98560.09;;;28.92;20.98
13241;BME280;6687;47.790;7.322;2023-06-14T09:05:54;98551.63;;;28.64;21.21
13241;BME280;6687;47.790;7.322;2023-06-14T09:08:22;98558.22;;;30.12;20.82
13241;BME280;6687;47.790;7.322;2023-06-14T09:10:49;98556.72;;;29.98;20.43
13241;BME280;6687;47.790;7.322;2023-06-14T09:13:17;98556.78;;;30.29;20.67
13241;BME280;6687;47.790;7.322;2023-06-14T09:15:44;98562.53;;;30.03;19.88
13241;BME280;6687;47.790;7.322;2023-06-14T09:18:11;98562.78;;;30.73;19.94
13241;BME280;6687;47.790;7.322;2023-06-14T09:20:38;98554.66;;;30.02;20.32
13241;BME280;6687;47.790;7.322;2023-06-14T09:23:04;98558.63;;;30.28;19.58
13241;BME280;6687;47.790;7.322;2023-06-14T09:25:41;98563.63;;;30.73;20.37
13241;BME280;6687;47.790;7.322;2023-06-14T09:28:08;98564.94;;;29.85;19.46
13241;BME280;6687;47.790;7.322;2023-06-14T09:30:36;98559.66;;;30.68;19.52
13241;BME280;6687;47.790;7.322;2023-06-14T09:33:03;98564.66;;;31.23;20.11
13241;BME280;6687;47.790;7.322;2023-06-14T09:35:31;98560.25;;;30.41;19.45
13241;BME280;6687;47.790;7.322;2023-06-14T09:37:58;98556.81;;;31.50;18.64
13241;BME280;6687;47.790;7.322;2023-06-14T09:40:25;98559.06;;;31.65;17.97
13241;BME280;6687;47.790;7.322;2023-06-14T09:42:53;98550.91;;;31.76;19.42
13241;BME280;6687;47.790;7.322;2023-06-14T09:45:20;98560.75;;;32.05;19.68
13241;BME280;6687;47.790;7.322;2023-06-14T09:47:49;98548.84;;;32.27;18.62
13241;BME280;6687;47.790;7.322;2023-06-14T09:50:16;98555.66;;;32.21;18.46
13241;BME280;6687;47.790;7.322;2023-06-14T09:52:44;98557.97;;;32.54;17.65
13241;BME280;6687;47.790;7.322;2023-06-14T09:55:12;98547.31;;;32.72;17.87
13241;BME280;6687;47.790;7.322;2023-06-14T09:57:41;98562.19;;;31.89;18.24
13241;BME280;6687;47.790;7.322;2023-06-14T10:00:13;98562.44;;;31.47;17.14
13241;BME280;6687;47.790;7.322;2023-06-14T10:02:42;98552.81;;;31.35;17.90
13241;BME280;6687;47.790;7.322;2023-06-14T10:05:15;98554.00;;;32.01;17.98
13241;BME280;6687;47.790;7.322;2023-06-14T10:07:58;98563.88;;;31.71;17.86
13241;BME280;6687;47.790;7.322;2023-06-14T10:10:26;98548.94;;;31.59;17.22
13241;BME280;6687;47.790;7.322;2023-06-14T10:12:53;98545.78;;;31.92;16.61
13241;BME280;6687;47.790;7.322;2023-06-14T10:15:26;98536.50;;;32.91;16.94
13241;BME280;6687;47.790;7.322;2023-06-14T10:17:58;98538.88;;;32.66;16.71
13241;BME280;6687;47.790;7.322;2023-06-14T10:20:30;98540.38;;;32.97;16.64
13241;BME280;6687;47.790;7.322;2023-06-14T10:23:03;98528.91;;;33.04;16.79
13241;BME280;6687;47.790;7.322;2023-06-14T10:25:30;98530.78;;;32.29;16.95
13241;BME280;6687;47.790;7.322;2023-06-14T10:28:15;98537.56;;;33.26;16.08
13241;BME280;6687;47.790;7.322;2023-06-14T10:31:05;98526.34;;;34.02;16.24
13241;BME280;6687;47.790;7.322;2023-06-14T10:33:33;98533.97;;;33.35;17.08
13241;BME280;6687;47.790;7.322;2023-06-14T10:36:11;98532.47;;;32.40;17.39
13241;BME280;6687;47.790;7.322;2023-06-14T10:38:57;98524.28;;;33.78;16.55
13241;BME280;6687;47.790;7.322;2023-06-14T10:41:24;98519.78;;;33.79;16.91
13241;BME280;6687;47.790;7.322;2023-06-14T10:43:52;98523.16;;;32.99;17.00
13241;BME280;6687;47.790;7.322;2023-06-14T10:46:20;98518.84;;;33.06;16.97
13241;BME280;6687;47.790;7.322;2023-06-14T10:48:48;98525.22;;;32.03;16.86
13241;BME280;6687;47.790;7.322;2023-06-14T10:51:18;98528.13;;;32.94;16.41
13241;BME280;6687;47.790;7.322;2023-06-14T10:53:47;98523.06;;;33.19;16.42
13241;BME280;6687;47.790;7.322;2023-06-14T10:56:26;98524.03;;;33.90;16.17
13241;BME280;6687;47.790;7.322;2023-06-14T10:58:53;98517.16;;;34.13;16.08
13241;BME280;6687;47.790;7.322;2023-06-14T11:01:35;98508.09;;;33.70;15.96
13241;BME280;6687;47.790;7.322;2023-06-14T11:04:09;98511.75;;;34.13;15.77
13241;BME280;6687;47.790;7.322;2023-06-14T11:06:45;98505.22;;;34.42;15.62
13241;BME280;6687;47.790;7.322;2023-06-14T11:09:45;98517.34;;;34.72;15.62
13241;BME280;6687;47.790;7.322;2023-06-14T11:12:17;98506.16;;;34.59;16.01
13241;BME280;6687;47.790;7.322;2023-06-14T11:14:46;98510.78;;;33.70;15.78
13241;BME280;6687;47.790;7.322;2023-06-14T11:17:14;98516.81;;;34.69;15.67
13241;BME280;6687;47.790;7.322;2023-06-14T11:19:41;98508.63;;;35.45;14.93
13241;BME280;6687;47.790;7.322;2023-06-14T11:22:07;98510.00;;;35.66;15.56
13241;BME280;6687;47.790;7.322;2023-06-14T11:24:34;98504.63;;;34.04;15.43
13241;BME280;6687;47.790;7.322;2023-06-14T11:27:01;98490.59;;;34.79;14.72
13241;BME280;6687;47.790;7.322;2023-06-14T11:29:29;98495.63;;;34.74;15.46
13241;BME280;6687;47.790;7.322;2023-06-14T11:31:57;98505.06;;;35.29;16.26
13241;BME280;6687;47.790;7.322;2023-06-14T11:34:25;98497.13;;;36.01;14.86
13241;BME280;6687;47.790;7.322;2023-06-14T11:36:52;98491.41;;;36.04;13.97
13241;BME280;6687;47.790;7.322;2023-06-14T11:39:24;98495.72;;;35.06;14.78
13241;BME280;6687;47.790;7.322;2023-06-14T11:41:51;98503.09;;;35.72;14.75
13241;BME280;6687;47.790;7.322;2023-06-14T11:44:18;98497.66;;;35.55;14.91
13241;BME280;6687;47.790;7.322;2023-06-14T11:46:44;98492.09;;;35.49;14.55
13241;BME280;6687;47.790;7.322;2023-06-14T11:49:11;98504.69;;;35.23;15.00
13241;BME280;6687;47.790;7.322;2023-06-14T11:51:39;98494.44;;;35.27;14.59
13241;BME280;6687;47.790;7.322;2023-06-14T11:54:09;98497.84;;;34.78;14.80
13241;BME280;6687;47.790;7.322;2023-06-14T11:56:36;98497.47;;;35.16;14.96
13241;BME280;6687;47.790;7.322;2023-06-14T11:59:03;98494.78;;;35.24;15.27
13241;BME280;6687;47.790;7.322;2023-06-14T12:01:31;98492.38;;;35.04;14.92
13241;BME280;6687;47.790;7.322;2023-06-14T12:03:59;98481.03;;;36.40;13.76
13241;BME280;6687;47.790;7.322;2023-06-14T12:06:26;98481.69;;;36.51;13.81
13241;BME280;6687;47.790;7.322;2023-06-14T12:08:59;98492.09;;;35.49;14.57
13241;BME280;6687;47.790;7.322;2023-06-14T12:11:32;98484.59;;;36.33;14.08
13241;BME280;6687;47.790;7.322;2023-06-14T12:13:59;98469.91;;;36.43;14.32
13241;BME280;6687;47.790;7.322;2023-06-14T12:16:31;98487.41;;;35.75;14.27
13241;BME280;6687;47.790;7.322;2023-06-14T12:19:00;98482.28;;;36.05;13.81
13241;BME280;6687;47.790;7.322;2023-06-14T12:21:27;98473.41;;;35.63;14.43
13241;BME280;6687;47.790;7.322;2023-06-14T12:23:54;98479.19;;;36.49;14.64
13241;BME280;6687;47.790;7.322;2023-06-14T12:26:24;98470.75;;;37.07;13.48
13241;BME280;6687;47.790;7.322;2023-06-14T12:28:52;98484.00;;;37.01;14.22
13241;BME280;6687;47.790;7.322;2023-06-14T12:31:19;98476.50;;;36.80;14.02
13241;BME280;6687;47.790;7.322;2023-06-14T12:33:46;98474.88;;;36.07;14.17
13241;BME280;6687;47.790;7.322;2023-06-14T12:36:14;98484.34;;;35.21;14.85
13241;BME280;6687;47.790;7.322;2023-06-14T12:38:42;98484.34;;;35.21;14.76
13241;BME280;6687;47.790;7.322;2023-06-14T12:41:08;98478.00;;;34.45;15.29
13241;BME280;6687;47.790;7.322;2023-06-14T12:43:37;98466.69;;;35.84;14.84
13241;BME280;6687;47.790;7.322;2023-06-14T12:46:03;98467.50;;;35.93;14.80
13241;BME280;6687;47.790;7.322;2023-06-14T12:48:30;98477.44;;;35.59;14.88
13241;BME280;6687;47.790;7.322;2023-06-14T12:50:57;98467.97;;;36.69;14.11
13241;BME280;6687;47.790;7.322;2023-06-14T12:53:23;98470.19;;;36.17;14.88
13241;BME280;6687;47.790;7.322;2023-06-14T12:55:50;98474.00;;;36.23;14.87
13241;BME280;6687;47.790;7.322;2023-06-14T12:58:17;98477.59;;;36.15;14.34
13241;BME280;6687;47.790;7.322;2023-06-14T13:00:46;98478.22;;;37.05;14.56
13241;BME280;6687;47.790;7.322;2023-06-14T13:03:13;98475.44;;;37.82;14.10
13241;BME280;6687;47.790;7.322;2023-06-14T13:05:40;98473.56;;;35.87;15.15
13241;BME280;6687;47.790;7.322;2023-06-14T13:08:08;98479.56;;;36.30;14.91
13241;BME280;6687;47.790;7.322;2023-06-14T13:10:35;98480.41;;;37.78;14.31
13241;BME280;6687;47.790;7.322;2023-06-14T13:13:02;98475.84;;;37.56;13.83
13241;BME280;6687;47.790;7.322;2023-06-14T13:15:29;98476.88;;;37.32;13.95
13241;BME280;6687;47.790;7.322;2023-06-14T13:17:57;98476.44;;;35.85;14.62
13241;BME280;6687;47.790;7.322;2023-06-14T13:20:24;98478.94;;;36.19;14.78
13241;BME280;6687;47.790;7.322;2023-06-14T13:22:51;98486.13;;;36.83;14.80
13241;BME280;6687;47.790;7.322;2023-06-14T13:25:17;98486.34;;;37.59;14.61
13241;BME280;6687;47.790;7.322;2023-06-14T13:27:44;98486.38;;;36.96;14.74
13241;BME280;6687;47.790;7.322;2023-06-14T13:30:11;98485.34;;;36.66;14.16
13241;BME280;6687;47.790;7.322;2023-06-14T13:32:38;98474.47;;;37.60;14.00
13241;BME280;6687;47.790;7.322;2023-06-14T13:35:07;98479.28;;;36.00;14.96
13241;BME280;6687;47.790;7.322;2023-06-14T13:37:33;98483.34;;;35.71;14.73
13241;BME280;6687;47.790;7.322;2023-06-14T13:40:00;98479.59;;;36.21;14.83
13241;BME280;6687;47.790;7.322;2023-06-14T13:42:27;98480.56;;;37.39;13.99
13241;BME280;6687;47.790;7.322;2023-06-14T13:44:56;98477.22;;;37.52;13.75
13241;BME280;6687;47.790;7.322;2023-06-14T13:47:23;98471.16;;;37.50;13.55
13241;BME280;6687;47.790;7.322;2023-06-14T13:49:50;98473.94;;;36.87;14.55
13241;BME280;6687;47.790;7.322;2023-06-14T13:52:18;98485.00;;;37.00;14.45
13241;BME280;6687;47.790;7.322;2023-06-14T13:54:45;98483.56;;;37.67;14.39
13241;BME280;6687;47.790;7.322;2023-06-14T13:57:11;98473.03;;;35.91;15.07
13241;BME280;6687;47.790;7.322;2023-06-14T13:59:38;98472.97;;;36.80;14.63
13241;BME280;6687;47.790;7.322;2023-06-14T14:02:06;98469.13;;;37.52;13.92
13241;BME280;6687;47.790;7.322;2023-06-14T14:04:33;98477.91;;;35.14;15.55
13241;BME280;6687;47.790;7.322;2023-06-14T14:07:00;98468.50;;;36.00;15.02
13241;BME280;6687;47.790;7.322;2023-06-14T14:09:28;98468.16;;;36.19;14.93
13241;BME280;6687;47.790;7.322;2023-06-14T14:11:55;98463.72;;;37.52;14.23
13241;BME280;6687;47.790;7.322;2023-06-14T14:14:22;98471.38;;;36.54;14.54
13241;BME280;6687;47.790;7.322;2023-06-14T14:16:49;98480.41;;;37.78;14.25
13241;BME280;6687;47.790;7.322;2023-06-14T14:19:16;98475.91;;;36.62;14.27
13241;BME280;6687;47.790;7.322;2023-06-14T14:21:44;98461.06;;;36.97;13.95
13241;BME280;6687;47.790;7.322;2023-06-14T14:24:10;98472.88;;;36.01;15.01
13241;BME280;6687;47.790;7.322;2023-06-14T14:26:39;98469.50;;;36.63;14.76
13241;BME280;6687;47.790;7.322;2023-06-14T14:29:06;98463.63;;;37.98;13.58
13241;BME280;6687;47.790;7.322;2023-06-14T14:31:32;98458.88;;;37.85;13.38
13241;BME280;6687;47.790;7.322;2023-06-14T14:33:59;98466.97;;;38.00;14.04
13241;BME280;6687;47.790;7.322;2023-06-14T14:36:26;98473.53;;;37.30;14.33
13241;BME280;6687;47.790;7.322;2023-06-14T14:38:52;98470.31;;;37.03;14.04
13241;BME280;6687;47.790;7.322;2023-06-14T14:41:19;98469.84;;;37.69;14.33
13241;BME280;6687;47.790;7.322;2023-06-14T14:43:47;98485.22;;;37.22;14.81
13241;BME280;6687;47.790;7.322;2023-06-14T14:46:15;98484.63;;;37.12;14.29
13241;BME280;6687;47.790;7.322;2023-06-14T14:48:42;98475.25;;;37.46;14.34
13241;BME280;6687;47.790;7.322;2023-06-14T14:51:08;98478.16;;;37.21;14.71
13241;BME280;6687;47.790;7.322;2023-06-14T14:53:35;98482.94;;;37.34;14.03
13241;BME280;6687;47.790;7.322;2023-06-14T14:56:02;98484.13;;;36.29;14.86
13241;BME280;6687;47.790;7.322;2023-06-14T14:58:28;98482.69;;;35.86;15.79
13241;BME280;6687;47.790;7.322;2023-06-14T15:00:57;98482.00;;;35.92;15.19
13241;BME280;6687;47.790;7.322;2023-06-14T15:03:23;98479.47;;;37.25;14.43
13241;BME280;6687;47.790;7.322;2023-06-14T15:05:50;98485.63;;;36.79;14.24
13241;BME280;6687;47.790;7.322;2023-06-14T15:08:17;98479.56;;;37.55;14.25
13241;BME280;6687;47.790;7.322;2023-06-14T15:10:44;98490.00;;;37.58;14.56
13241;BME280;6687;47.790;7.322;2023-06-14T15:13:12;98481.06;;;37.95;14.24
13241;BME280;6687;47.790;7.322;2023-06-14T15:15:39;98484.13;;;37.77;14.26
13241;BME280;6687;47.790;7.322;2023-06-14T15:18:07;98484.97;;;38.31;13.58
13241;BME280;6687;47.790;7.322;2023-06-14T15:20:35;98482.50;;;38.66;13.85
13241;BME280;6687;47.790;7.322;2023-06-14T15:23:01;98485.25;;;36.43;14.96
13241;BME280;6687;47.790;7.322;2023-06-14T15:25:29;98485.44;;;37.58;13.82
13241;BME280;6687;47.790;7.322;2023-06-14T15:27:57;98483.94;;;37.56;13.94
13241;BME280;6687;47.790;7.322;2023-06-14T15:30:23;98483.78;;;37.34;14.21
13241;BME280;6687;47.790;7.322;2023-06-14T15:32:50;98483.66;;;38.56;13.55
13241;BME280;6687;47.790;7.322;2023-06-14T15:35:18;98477.16;;;37.83;13.84
13241;BME280;6687;47.790;7.322;2023-06-14T15:37:47;98487.88;;;37.76;13.62
13241;BME280;6687;47.790;7.322;2023-06-14T15:40:15;98473.47;;;37.15;14.29
13241;BME280;6687;47.790;7.322;2023-06-14T15:42:41;98473.34;;;37.31;14.11
13241;BME280;6687;47.790;7.322;2023-06-14T15:45:09;98469.91;;;37.37;14.02
13241;BME280;6687;47.790;7.322;2023-06-14T15:47:36;98476.97;;;37.85;14.00
13241;BME280;6687;47.790;7.322;2023-06-14T15:50:03;98479.59;;;37.93;13.44
13241;BME280;6687;47.790;7.322;2023-06-14T15:52:34;98481.91;;;37.96;13.46
13241;BME280;6687;47.790;7.322;2023-06-14T15:55:01;98471.47;;;37.93;13.34
13241;BME280;6687;47.790;7.322;2023-06-14T15:57:29;98485.94;;;37.16;14.14
13241;BME280;6687;47.790;7.322;2023-06-14T15:59:56;98478.88;;;37.15;14.45
13241;BME280;6687;47.790;7.322;2023-06-14T16:02:22;98471.88;;;37.44;13.79
13241;BME280;6687;47.790;7.322;2023-06-14T16:04:49;98474.69;;;36.73;14.49
13241;BME280;6687;47.790;7.322;2023-06-14T16:07:16;98467.50;;;36.88;14.43
13241;BME280;6687;47.790;7.322;2023-06-14T16:09:44;98466.38;;;37.60;14.22
13241;BME280;6687;47.790;7.322;2023-06-14T16:12:11;98474.69;;;36.25;14.55
13241;BME280;6687;47.790;7.322;2023-06-14T16:14:38;98468.44;;;37.03;14.61
13241;BME280;6687;47.790;7.322;2023-06-14T16:17:05;98474.53;;;36.10;15.57
13241;BME280;6687;47.790;7.322;2023-06-14T16:19:32;98473.59;;;37.45;14.17
13241;BME280;6687;47.790;7.322;2023-06-14T16:21:58;98473.88;;;36.08;14.75
13241;BME280;6687;47.790;7.322;2023-06-14T16:24:25;98470.97;;;37.51;14.15
13241;BME280;6687;47.790;7.322;2023-06-14T16:26:53;98483.25;;;37.16;14.26
13241;BME280;6687;47.790;7.322;2023-06-14T16:29:20;98481.44;;;34.63;16.37
13241;BME280;6687;47.790;7.322;2023-06-14T16:31:47;98481.34;;;35.73;15.73
13241;BME280;6687;47.790;7.322;2023-06-14T16:34:13;98488.63;;;36.37;15.39
13241;BME280;6687;47.790;7.322;2023-06-14T16:36:45;98476.47;;;36.41;15.02
13241;BME280;6687;47.790;7.322;2023-06-14T16:39:12;98486.72;;;35.98;16.07
13241;BME280;6687;47.790;7.322;2023-06-14T16:41:38;98483.59;;;36.34;15.48
13241;BME280;6687;47.790;7.322;2023-06-14T16:44:06;98485.00;;;35.39;16.58
13241;BME280;6687;47.790;7.322;2023-06-14T16:46:34;98496.31;;;35.59;16.46
13241;BME280;6687;47.790;7.322;2023-06-14T16:49:02;98494.78;;;35.24;16.11
13241;BME280;6687;47.790;7.322;2023-06-14T16:51:28;98493.00;;;34.90;16.48
13241;BME280;6687;47.790;7.322;2023-06-14T16:53:55;98497.81;;;34.44;16.58
13241;BME280;6687;47.790;7.322;2023-06-14T16:56:23;98501.09;;;34.90;16.47
13241;BME280;6687;47.790;7.322;2023-06-14T16:58:51;98497.66;;;35.39;16.21
13241;BME280;6687;47.790;7.322;2023-06-14T17:01:19;98496.03;;;33.74;18.04
13241;BME280;6687;47.790;7.322;2023-06-14T17:03:46;98507.84;;;35.02;17.10
13241;BME280;6687;47.790;7.322;2023-06-14T17:06:13;98509.44;;;34.71;16.96
13241;BME280;6687;47.790;7.322;2023-06-14T17:08:41;98506.84;;;34.26;17.42
13241;BME280;6687;47.790;7.322;2023-06-14T17:11:07;98506.91;;;35.28;16.82
13241;BME280;6687;47.790;7.322;2023-06-14T17:13:34;98501.38;;;34.44;17.22
13241;BME280;6687;47.790;7.322;2023-06-14T17:16:02;98509.56;;;33.82;17.90
13241;BME280;6687;47.790;7.322;2023-06-14T17:18:33;98515.78;;;34.09;17.52
13241;BME280;6687;47.790;7.322;2023-06-14T17:20:59;98521.66;;;33.15;17.50
13241;BME280;6687;47.790;7.322;2023-06-14T17:23:27;98521.06;;;33.93;17.11
13241;BME280;6687;47.790;7.322;2023-06-14T17:25:53;98526.00;;;33.79;17.41
13241;BME280;6687;47.790;7.322;2023-06-14T17:28:20;98528.84;;;34.04;17.42
13241;BME280;6687;47.790;7.322;2023-06-14T17:30:47;98530.63;;;33.95;17.69
13241;BME280;6687;47.790;7.322;2023-06-14T17:33:13;98538.75;;;33.77;18.35
13241;BME280;6687;47.790;7.322;2023-06-14T17:35:43;98543.78;;;33.80;18.55
13241;BME280;6687;47.790;7.322;2023-06-14T17:38:10;98537.81;;;33.51;18.73
13241;BME280;6687;47.790;7.322;2023-06-14T17:40:37;98549.28;;;34.41;18.17
13241;BME280;6687;47.790;7.322;2023-06-14T17:43:03;98552.69;;;33.99;18.49
13241;BME280;6687;47.790;7.322;2023-06-14T17:45:30;98545.34;;;34.09;18.67
13241;BME280;6687;47.790;7.322;2023-06-14T17:47:57;98557.06;;;33.00;19.03
13241;BME280;6687;47.790;7.322;2023-06-14T17:50:26;98553.53;;;32.15;19.97
13241;BME280;6687;47.790;7.322;2023-06-14T17:52:54;98562.22;;;33.57;19.17
13241;BME280;6687;47.790;7.322;2023-06-14T17:55:21;98555.66;;;32.21;19.99
13241;BME280;6687;47.790;7.322;2023-06-14T17:57:48;98555.47;;;33.35;19.00
13241;BME280;6687;47.790;7.322;2023-06-14T18:00:16;98565.31;;;32.89;19.27
13241;BME280;6687;47.790;7.322;2023-06-14T18:02:43;98560.81;;;32.42;19.76
13241;BME280;6687;47.790;7.322;2023-06-14T18:05:09;98570.88;;;33.05;19.34
13241;BME280;6687;47.790;7.322;2023-06-14T18:07:36;98568.03;;;33.17;19.49
13241;BME280;6687;47.790;7.322;2023-06-14T18:10:06;98575.53;;;33.13;19.34
13241;BME280;6687;47.790;7.322;2023-06-14T18:12:33;98585.91;;;32.61;19.86
13241;BME280;6687;47.790;7.322;2023-06-14T18:14:59;98581.91;;;33.02;19.11
13241;BME280;6687;47.790;7.322;2023-06-14T18:17:26;98587.19;;;33.22;19.00
13241;BME280;6687;47.790;7.322;2023-06-14T18:19:53;98590.09;;;31.97;20.55
13241;BME280;6687;47.790;7.322;2023-06-14T18:22:20;98595.44;;;32.36;20.20
13241;BME280;6687;47.790;7.322;2023-06-14T18:24:46;98581.06;;;32.74;20.03
13241;BME280;6687;47.790;7.322;2023-06-14T18:27:16;98587.78;;;32.31;20.21
13241;BME280;6687;47.790;7.322;2023-06-14T18:29:43;98603.66;;;32.05;20.35
13241;BME280;6687;47.790;7.322;2023-06-14T18:32:11;98598.56;;;32.78;19.88
13241;BME280;6687;47.790;7.322;2023-06-14T18:34:38;98608.72;;;31.88;20.93
13241;BME280;6687;47.790;7.322;2023-06-14T18:37:05;98609.22;;;31.43;20.67